Aérodrome :
LOGIN :

S'inscrire | Disclaimer

   EN    FR    IT 

 










Légende :    VFR   VFR Marginal   IFR   IFR Intensif   IFR Très Intensif
Visi : 
Plafond : 
>= 8 km
>= 3000ft
5 à 8 km
1000 à 3000 ft
1500m à 5 km
500 à 1000 ft
800 à 1500m
200 à 500 ft
< 800m
< 200 ft
Symboles :   Orages  Brouillard  Fortes neiges  Fortes précipitations  Vent > 20 kt
SIGMETs :   Divers  Orages  Givrage  Turbulence  Onde Orograph.  Cendres Volcan.






- Altitude de l'aérodrome : 160 ft
- Code IATA : FMO


EDDG - Münster Osnabrück Int.

DERNIER METAR :
  • 170420Z AUTO 13003KT 090V170 CAVOK 14/13 Q1009 NOSIG

METARs EXPIRÉS :
  • 170350Z AUTO VRB02KT CAVOK 13/13 Q1009 NOSIG
  • 170320Z AUTO 13003KT 080V170 CAVOK 14/13 Q1009 NOSIG
  • 170250Z AUTO 14004KT CAVOK 14/13 Q1009 NOSIG
  • 170220Z AUTO VRB02KT CAVOK 14/13 Q1009 NOSIG
  • 170150Z AUTO VRB02KT 9999 -SHRA FEW034 FEW///CB 14/13 Q1009 NOSIG
  • 170120Z AUTO VRB02KT 9999 FEW046 14/13 Q1009 NOSIG
  • 170050Z AUTO 16003KT 130V220 CAVOK 14/13 Q1009 NOSIG
  • 170020Z AUTO 15004KT CAVOK 14/13 Q1009 NOSIG
  • 162350Z AUTO 15003KT CAVOK 13/13 Q1009 NOSIG

TAF TAF EDDG
Valide du 17 à 00h jusqu'au 18 à 00h UTC


162300Z 1700/1724 15003KT 9999 SCT040
PROB30
TEMPO 1700/1706 2000 BCFG
BECMG 1706/1709 23007KT
PROB30
TEMPO 1706/1709 BKN010
TEMPO 1709/1716 SHRA BKN030CB
PROB30
TEMPO 1712/1715 TSRA
BECMG 1716/1718 VRB03KT
TEMPO 1722/1724 4000 BCFG



MET'MAP, la Météo Aéronautique d'un coup d'oeil ! - Copyright ORBIFLY Décembre 2007 - Disclaimer

ORBIFLY MET'MAP TEAM :

Programmation & Développement : Alexandra Zaïnal
Sur une idée originale de : Baudouin d'Aumeries
Soutien technique & logistique : Manuel Goepfert
Assistance : Marc-Olivier Méhu




SOURCES & CREDITS :

   NOAA